sensor_id;sensor_type;location;lat;lon;timestamp;P1;durP1;ratioP1;P2;durP2;ratioP2
59406;SDS011;45208;32.616;-115.472;2022-08-19T00:01:15;11.88;;;3.30;;
59406;SDS011;45208;32.616;-115.472;2022-08-19T00:04:40;8.73;;;3.30;;
59406;SDS011;45208;32.616;-115.472;2022-08-19T00:08:07;9.25;;;3.08;;
59406;SDS011;45208;32.616;-115.472;2022-08-19T00:11:34;6.97;;;2.80;;
59406;SDS011;45208;32.616;-115.472;2022-08-19T00:14:59;8.50;;;2.80;;
59406;SDS011;45208;32.616;-115.472;2022-08-19T00:18:25;9.40;;;2.72;;
59406;SDS011;45208;32.616;-115.472;2022-08-19T00:21:51;7.70;;;2.70;;
59406;SDS011;45208;32.616;-115.472;2022-08-19T00:25:17;12.27;;;2.75;;
59406;SDS011;45208;32.616;-115.472;2022-08-19T00:28:43;8.82;;;3.08;;
59406;SDS011;45208;32.616;-115.472;2022-08-19T00:32:08;14.73;;;3.60;;
59406;SDS011;45208;32.616;-115.472;2022-08-19T00:35:34;9.85;;;2.95;;
59406;SDS011;45208;32.616;-115.472;2022-08-19T00:38:59;7.10;;;2.40;;
59406;SDS011;45208;32.616;-115.472;2022-08-19T00:42:25;7.70;;;2.15;;
59406;SDS011;45208;32.616;-115.472;2022-08-19T00:45:53;8.23;;;2.20;;
59406;SDS011;45208;32.616;-115.472;2022-08-19T00:49:23;11.32;;;2.40;;
59406;SDS011;45208;32.616;-115.472;2022-08-19T00:52:50;10.55;;;2.42;;
59406;SDS011;45208;32.616;-115.472;2022-08-19T00:56:15;11.80;;;2.55;;
59406;SDS011;45208;32.616;-115.472;2022-08-19T00:59:44;8.93;;;2.28;;
59406;SDS011;45208;32.616;-115.472;2022-08-19T01:03:17;7.32;;;2.30;;
59406;SDS011;45208;32.616;-115.472;2022-08-19T01:06:43;112.47;;;6.53;;
59406;SDS011;45208;32.616;-115.472;2022-08-19T01:10:11;8.65;;;2.30;;
59406;SDS011;45208;32.616;-115.472;2022-08-19T01:13:39;8.57;;;2.42;;
59406;SDS011;45208;32.616;-115.472;2022-08-19T01:17:07;7.95;;;2.40;;
59406;SDS011;45208;32.616;-115.472;2022-08-19T01:20:35;14.65;;;2.97;;
59406;SDS011;45208;32.616;-115.472;2022-08-19T01:24:05;11.27;;;4.88;;
59406;SDS011;45208;32.616;-115.472;2022-08-19T01:27:37;10.77;;;2.85;;
59406;SDS011;45208;32.616;-115.472;2022-08-19T01:31:04;6.97;;;2.20;;
59406;SDS011;45208;32.616;-115.472;2022-08-19T01:34:30;12.23;;;2.40;;
59406;SDS011;45208;32.616;-115.472;2022-08-19T01:37:58;11.57;;;2.40;;
59406;SDS011;45208;32.616;-115.472;2022-08-19T01:41:25;8.43;;;2.40;;
59406;SDS011;45208;32.616;-115.472;2022-08-19T01:44:50;7.30;;;2.20;;
59406;SDS011;45208;32.616;-115.472;2022-08-19T01:48:16;10.90;;;2.50;;
59406;SDS011;45208;32.616;-115.472;2022-08-19T01:51:44;13.95;;;2.65;;
59406;SDS011;45208;32.616;-115.472;2022-08-19T01:55:11;14.27;;;2.55;;
59406;SDS011;45208;32.616;-115.472;2022-08-19T01:58:41;13.68;;;2.88;;
59406;SDS011;45208;32.616;-115.472;2022-08-19T02:02:08;20.73;;;2.95;;
59406;SDS011;45208;32.616;-115.472;2022-08-19T02:05:35;13.20;;;3.10;;
59406;SDS011;45208;32.616;-115.472;2022-08-19T02:09:00;15.68;;;2.80;;
59406;SDS011;45208;32.616;-115.472;2022-08-19T02:12:30;64.50;;;5.63;;
59406;SDS011;45208;32.616;-115.472;2022-08-19T02:15:56;20.40;;;2.92;;
59406;SDS011;45208;32.616;-115.472;2022-08-19T02:19:21;14.48;;;2.40;;
59406;SDS011;45208;32.616;-115.472;2022-08-19T02:22:48;11.52;;;2.95;;
59406;SDS011;45208;32.616;-115.472;2022-08-19T02:26:13;7.97;;;2.40;;
59406;SDS011;45208;32.616;-115.472;2022-08-19T02:29:38;16.77;;;2.95;;
59406;SDS011;45208;32.616;-115.472;2022-08-19T02:33:04;22.35;;;3.20;;
59406;SDS011;45208;32.616;-115.472;2022-08-19T02:36:30;35.55;;;4.63;;
59406;SDS011;45208;32.616;-115.472;2022-08-19T02:43:49;15.93;;;3.03;;
59406;SDS011;45208;32.616;-115.472;2022-08-19T02:47:14;20.23;;;3.55;;
59406;SDS011;45208;32.616;-115.472;2022-08-19T02:50:44;23.30;;;3.47;;
59406;SDS011;45208;32.616;-115.472;2022-08-19T02:54:11;21.00;;;3.10;;
59406;SDS011;45208;32.616;-115.472;2022-08-19T02:57:37;11.55;;;3.00;;
59406;SDS011;45208;32.616;-115.472;2022-08-19T03:04:27;19.83;;;4.18;;
59406;SDS011;45208;32.616;-115.472;2022-08-19T03:07:53;19.70;;;3.10;;
59406;SDS011;45208;32.616;-115.472;2022-08-19T03:18:17;10.05;;;2.00;;
59406;SDS011;45208;32.616;-115.472;2022-08-19T03:21:44;8.27;;;2.03;;
59406;SDS011;45208;32.616;-115.472;2022-08-19T03:25:09;10.00;;;2.08;;
59406;SDS011;45208;32.616;-115.472;2022-08-19T03:28:35;7.88;;;2.00;;
59406;SDS011;45208;32.616;-115.472;2022-08-19T03:32:04;10.07;;;2.10;;
59406;SDS011;45208;32.616;-115.472;2022-08-19T03:35:29;7.70;;;1.83;;
59406;SDS011;45208;32.616;-115.472;2022-08-19T03:38:56;12.13;;;2.03;;
59406;SDS011;45208;32.616;-115.472;2022-08-19T03:42:21;11.07;;;2.00;;
59406;SDS011;45208;32.616;-115.472;2022-08-19T03:45:47;25.17;;;2.95;;
59406;SDS011;45208;32.616;-115.472;2022-08-19T03:49:14;9.27;;;2.03;;
59406;SDS011;45208;32.616;-115.472;2022-08-19T03:56:05;9.73;;;2.25;;
59406;SDS011;45208;32.616;-115.472;2022-08-19T03:59:35;12.98;;;2.20;;
59406;SDS011;45208;32.616;-115.472;2022-08-19T04:03:02;10.43;;;2.20;;
59406;SDS011;45208;32.616;-115.472;2022-08-19T04:06:29;17.73;;;3.25;;
59406;SDS011;45208;32.616;-115.472;2022-08-19T04:09:54;12.60;;;2.90;;
59406;SDS011;45208;32.616;-115.472;2022-08-19T04:13:20;15.48;;;3.67;;
59406;SDS011;45208;32.616;-115.472;2022-08-19T04:16:47;18.63;;;4.00;;
59406;SDS011;45208;32.616;-115.472;2022-08-19T04:20:12;19.30;;;4.72;;
59406;SDS011;45208;32.616;-115.472;2022-08-19T04:23:42;17.35;;;4.10;;
59406;SDS011;45208;32.616;-115.472;2022-08-19T04:27:07;21.77;;;4.38;;
59406;SDS011;45208;32.616;-115.472;2022-08-19T04:30:41;19.10;;;4.40;;
59406;SDS011;45208;32.616;-115.472;2022-08-19T04:34:09;14.18;;;3.90;;
59406;SDS011;45208;32.616;-115.472;2022-08-19T04:37:35;15.52;;;3.88;;
59406;SDS011;45208;32.616;-115.472;2022-08-19T04:41:01;11.38;;;3.30;;
59406;SDS011;45208;32.616;-115.472;2022-08-19T04:44:59;15.40;;;3.28;;
59406;SDS011;45208;32.616;-115.472;2022-08-19T04:48:30;15.73;;;3.08;;
59406;SDS011;45208;32.616;-115.472;2022-08-19T04:51:55;11.07;;;2.78;;
59406;SDS011;45208;32.616;-115.472;2022-08-19T04:55:22;10.95;;;2.70;;
59406;SDS011;45208;32.616;-115.472;2022-08-19T04:58:48;9.35;;;2.45;;
59406;SDS011;45208;32.616;-115.472;2022-08-19T05:02:14;7.15;;;2.40;;
59406;SDS011;45208;32.616;-115.472;2022-08-19T05:05:41;8.25;;;2.15;;
59406;SDS011;45208;32.616;-115.472;2022-08-19T05:09:08;16.77;;;2.85;;
59406;SDS011;45208;32.616;-115.472;2022-08-19T05:12:33;26.10;;;3.67;;
59406;SDS011;45208;32.616;-115.472;2022-08-19T05:15:59;9.52;;;3.10;;
59406;SDS011;45208;32.616;-115.472;2022-08-19T05:19:24;9.30;;;2.47;;
59406;SDS011;45208;32.616;-115.472;2022-08-19T05:23:09;10.23;;;3.20;;
59406;SDS011;45208;32.616;-115.472;2022-08-19T05:26:36;10.32;;;3.03;;
59406;SDS011;45208;32.616;-115.472;2022-08-19T05:30:02;110.95;;;11.25;;
59406;SDS011;45208;32.616;-115.472;2022-08-19T05:33:27;28.67;;;3.80;;
59406;SDS011;45208;32.616;-115.472;2022-08-19T05:36:54;66.30;;;6.32;;
59406;SDS011;45208;32.616;-115.472;2022-08-19T05:40:20;10.93;;;2.90;;
59406;SDS011;45208;32.616;-115.472;2022-08-19T05:43:46;19.17;;;3.25;;
59406;SDS011;45208;32.616;-115.472;2022-08-19T05:47:13;18.75;;;3.70;;
59406;SDS011;45208;32.616;-115.472;2022-08-19T05:50:40;25.20;;;4.55;;
59406;SDS011;45208;32.616;-115.472;2022-08-19T05:54:06;21.73;;;3.58;;
59406;SDS011;45208;32.616;-115.472;2022-08-19T05:57:31;12.48;;;3.20;;
59406;SDS011;45208;32.616;-115.472;2022-08-19T06:00:58;15.10;;;3.03;;
59406;SDS011;45208;32.616;-115.472;2022-08-19T06:04:23;16.25;;;3.75;;
59406;SDS011;45208;32.616;-115.472;2022-08-19T06:07:49;15.05;;;3.15;;
59406;SDS011;45208;32.616;-115.472;2022-08-19T06:14:41;25.08;;;3.90;;
59406;SDS011;45208;32.616;-115.472;2022-08-19T06:18:09;344.30;;;22.42;;
59406;SDS011;45208;32.616;-115.472;2022-08-19T06:21:37;521.03;;;29.75;;
59406;SDS011;45208;32.616;-115.472;2022-08-19T06:25:10;181.45;;;11.85;;
59406;SDS011;45208;32.616;-115.472;2022-08-19T06:28:37;115.88;;;9.75;;
59406;SDS011;45208;32.616;-115.472;2022-08-19T06:32:03;94.13;;;8.35;;
59406;SDS011;45208;32.616;-115.472;2022-08-19T06:35:29;116.97;;;9.10;;
59406;SDS011;45208;32.616;-115.472;2022-08-19T06:39:04;156.38;;;11.02;;
59406;SDS011;45208;32.616;-115.472;2022-08-19T06:42:29;166.32;;;11.85;;
59406;SDS011;45208;32.616;-115.472;2022-08-19T06:45:55;198.10;;;14.65;;
59406;SDS011;45208;32.616;-115.472;2022-08-19T06:49:21;318.13;;;22.38;;
59406;SDS011;45208;32.616;-115.472;2022-08-19T06:52:47;360.63;;;24.63;;
59406;SDS011;45208;32.616;-115.472;2022-08-19T06:56:18;345.05;;;23.20;;
59406;SDS011;45208;32.616;-115.472;2022-08-19T06:59:43;272.92;;;18.60;;
59406;SDS011;45208;32.616;-115.472;2022-08-19T07:03:09;226.07;;;17.15;;
59406;SDS011;45208;32.616;-115.472;2022-08-19T07:06:35;238.30;;;16.17;;
59406;SDS011;45208;32.616;-115.472;2022-08-19T07:10:01;192.93;;;13.60;;
59406;SDS011;45208;32.616;-115.472;2022-08-19T07:13:29;164.68;;;11.43;;
59406;SDS011;45208;32.616;-115.472;2022-08-19T07:16:55;165.40;;;10.73;;
59406;SDS011;45208;32.616;-115.472;2022-08-19T07:20:21;137.00;;;9.80;;
59406;SDS011;45208;32.616;-115.472;2022-08-19T07:23:48;123.72;;;8.63;;
59406;SDS011;45208;32.616;-115.472;2022-08-19T07:27:14;141.68;;;9.90;;
59406;SDS011;45208;32.616;-115.472;2022-08-19T07:30:39;115.47;;;8.83;;
59406;SDS011;45208;32.616;-115.472;2022-08-19T07:34:06;97.78;;;7.20;;
59406;SDS011;45208;32.616;-115.472;2022-08-19T07:37:32;92.68;;;7.35;;
59406;SDS011;45208;32.616;-115.472;2022-08-19T07:40:57;88.50;;;6.97;;
59406;SDS011;45208;32.616;-115.472;2022-08-19T07:44:24;59.55;;;5.10;;
59406;SDS011;45208;32.616;-115.472;2022-08-19T07:47:50;60.33;;;5.07;;
59406;SDS011;45208;32.616;-115.472;2022-08-19T07:51:17;38.33;;;3.60;;
59406;SDS011;45208;32.616;-115.472;2022-08-19T07:54:42;25.55;;;2.45;;
59406;SDS011;45208;32.616;-115.472;2022-08-19T07:58:08;19.50;;;2.65;;
59406;SDS011;45208;32.616;-115.472;2022-08-19T08:01:35;28.67;;;2.67;;
59406;SDS011;45208;32.616;-115.472;2022-08-19T08:05:00;17.95;;;2.78;;
59406;SDS011;45208;32.616;-115.472;2022-08-19T08:08:43;19.02;;;2.50;;
59406;SDS011;45208;32.616;-115.472;2022-08-19T08:15:35;21.15;;;2.70;;
59406;SDS011;45208;32.616;-115.472;2022-08-19T08:19:06;26.15;;;2.60;;
59406;SDS011;45208;32.616;-115.472;2022-08-19T08:22:32;29.80;;;2.83;;
59406;SDS011;45208;32.616;-115.472;2022-08-19T08:25:58;23.10;;;3.30;;
59406;SDS011;45208;32.616;-115.472;2022-08-19T08:29:29;27.17;;;3.28;;
59406;SDS011;45208;32.616;-115.472;2022-08-19T08:32:55;27.83;;;3.92;;
59406;SDS011;45208;32.616;-115.472;2022-08-19T08:36:20;27.27;;;4.05;;
59406;SDS011;45208;32.616;-115.472;2022-08-19T08:39:47;28.67;;;3.47;;
59406;SDS011;45208;32.616;-115.472;2022-08-19T08:46:48;28.55;;;3.15;;
59406;SDS011;45208;32.616;-115.472;2022-08-19T08:50:24;31.63;;;3.80;;
59406;SDS011;45208;32.616;-115.472;2022-08-19T08:54:15;36.38;;;3.95;;
59406;SDS011;45208;32.616;-115.472;2022-08-19T09:01:18;28.35;;;4.05;;
59406;SDS011;45208;32.616;-115.472;2022-08-19T09:04:44;41.30;;;4.75;;
59406;SDS011;45208;32.616;-115.472;2022-08-19T09:08:33;33.65;;;4.90;;
59406;SDS011;45208;32.616;-115.472;2022-08-19T09:15:37;40.08;;;5.43;;
59406;SDS011;45208;32.616;-115.472;2022-08-19T09:19:06;34.17;;;4.63;;
59406;SDS011;45208;32.616;-115.472;2022-08-19T09:22:43;36.88;;;4.80;;
59406;SDS011;45208;32.616;-115.472;2022-08-19T09:26:13;40.80;;;4.80;;
59406;SDS011;45208;32.616;-115.472;2022-08-19T09:29:39;41.15;;;4.97;;
59406;SDS011;45208;32.616;-115.472;2022-08-19T09:33:06;40.15;;;4.75;;
59406;SDS011;45208;32.616;-115.472;2022-08-19T09:36:32;38.40;;;4.80;;
59406;SDS011;45208;32.616;-115.472;2022-08-19T09:39:57;46.63;;;4.50;;
59406;SDS011;45208;32.616;-115.472;2022-08-19T09:43:27;34.58;;;4.38;;
59406;SDS011;45208;32.616;-115.472;2022-08-19T09:46:52;30.65;;;4.15;;
59406;SDS011;45208;32.616;-115.472;2022-08-19T09:50:19;26.58;;;3.80;;
59406;SDS011;45208;32.616;-115.472;2022-08-19T09:57:17;34.90;;;4.38;;
59406;SDS011;45208;32.616;-115.472;2022-08-19T10:00:42;30.98;;;4.07;;
59406;SDS011;45208;32.616;-115.472;2022-08-19T10:04:08;24.85;;;3.70;;
59406;SDS011;45208;32.616;-115.472;2022-08-19T10:07:52;29.55;;;3.67;;
59406;SDS011;45208;32.616;-115.472;2022-08-19T10:11:19;35.17;;;4.28;;
59406;SDS011;45208;32.616;-115.472;2022-08-19T10:18:09;31.88;;;4.22;;
59406;SDS011;45208;32.616;-115.472;2022-08-19T10:21:35;28.52;;;4.15;;
59406;SDS011;45208;32.616;-115.472;2022-08-19T10:25:03;46.65;;;4.63;;
59406;SDS011;45208;32.616;-115.472;2022-08-19T10:28:33;35.78;;;4.30;;
59406;SDS011;45208;32.616;-115.472;2022-08-19T10:32:08;42.55;;;5.18;;
59406;SDS011;45208;32.616;-115.472;2022-08-19T10:35:33;40.53;;;4.53;;
59406;SDS011;45208;32.616;-115.472;2022-08-19T10:39:01;30.67;;;4.40;;
59406;SDS011;45208;32.616;-115.472;2022-08-19T10:42:27;33.75;;;4.47;;
59406;SDS011;45208;32.616;-115.472;2022-08-19T10:45:53;34.85;;;4.47;;
59406;SDS011;45208;32.616;-115.472;2022-08-19T10:49:18;33.97;;;4.68;;
59406;SDS011;45208;32.616;-115.472;2022-08-19T10:52:44;37.00;;;5.25;;
59406;SDS011;45208;32.616;-115.472;2022-08-19T10:56:09;35.40;;;4.88;;
59406;SDS011;45208;32.616;-115.472;2022-08-19T10:59:34;32.38;;;4.85;;
59406;SDS011;45208;32.616;-115.472;2022-08-19T11:02:59;35.95;;;5.30;;
59406;SDS011;45208;32.616;-115.472;2022-08-19T11:06:26;34.20;;;4.68;;
59406;SDS011;45208;32.616;-115.472;2022-08-19T11:09:52;44.35;;;4.60;;
59406;SDS011;45208;32.616;-115.472;2022-08-19T11:13:21;39.63;;;4.63;;
59406;SDS011;45208;32.616;-115.472;2022-08-19T11:16:47;34.65;;;4.38;;
59406;SDS011;45208;32.616;-115.472;2022-08-19T11:23:42;34.13;;;4.47;;
59406;SDS011;45208;32.616;-115.472;2022-08-19T11:27:09;35.83;;;4.53;;
59406;SDS011;45208;32.616;-115.472;2022-08-19T11:30:34;32.30;;;4.70;;
59406;SDS011;45208;32.616;-115.472;2022-08-19T11:34:13;36.85;;;5.45;;
59406;SDS011;45208;32.616;-115.472;2022-08-19T11:37:39;34.90;;;5.13;;
59406;SDS011;45208;32.616;-115.472;2022-08-19T11:41:05;35.72;;;4.75;;
59406;SDS011;45208;32.616;-115.472;2022-08-19T11:44:51;41.63;;;9.05;;
59406;SDS011;45208;32.616;-115.472;2022-08-19T11:48:17;63.58;;;16.75;;
59406;SDS011;45208;32.616;-115.472;2022-08-19T11:51:44;44.25;;;13.77;;
59406;SDS011;45208;32.616;-115.472;2022-08-19T11:55:11;58.75;;;18.90;;
59406;SDS011;45208;32.616;-115.472;2022-08-19T11:58:37;51.55;;;9.07;;
59406;SDS011;45208;32.616;-115.472;2022-08-19T12:02:03;51.35;;;12.85;;
59406;SDS011;45208;32.616;-115.472;2022-08-19T12:05:28;54.07;;;6.80;;
59406;SDS011;45208;32.616;-115.472;2022-08-19T12:08:55;47.25;;;6.40;;
59406;SDS011;45208;32.616;-115.472;2022-08-19T12:12:21;39.45;;;5.60;;
59406;SDS011;45208;32.616;-115.472;2022-08-19T12:15:46;34.47;;;5.40;;
59406;SDS011;45208;32.616;-115.472;2022-08-19T12:19:12;44.92;;;5.35;;
59406;SDS011;45208;32.616;-115.472;2022-08-19T12:22:39;48.58;;;5.60;;
59406;SDS011;45208;32.616;-115.472;2022-08-19T12:26:05;44.25;;;5.03;;
59406;SDS011;45208;32.616;-115.472;2022-08-19T12:29:30;65.27;;;6.20;;
59406;SDS011;45208;32.616;-115.472;2022-08-19T12:32:55;35.97;;;5.60;;
59406;SDS011;45208;32.616;-115.472;2022-08-19T12:36:21;37.90;;;5.00;;
59406;SDS011;45208;32.616;-115.472;2022-08-19T12:39:47;43.63;;;5.35;;
59406;SDS011;45208;32.616;-115.472;2022-08-19T12:46:38;33.38;;;4.80;;
59406;SDS011;45208;32.616;-115.472;2022-08-19T12:50:03;39.87;;;5.33;;
59406;SDS011;45208;32.616;-115.472;2022-08-19T12:53:34;34.20;;;4.82;;
59406;SDS011;45208;32.616;-115.472;2022-08-19T12:56:59;35.47;;;4.55;;
59406;SDS011;45208;32.616;-115.472;2022-08-19T13:00:27;29.75;;;4.25;;
59406;SDS011;45208;32.616;-115.472;2022-08-19T13:03:56;33.20;;;3.97;;
59406;SDS011;45208;32.616;-115.472;2022-08-19T13:07:24;31.20;;;4.57;;
59406;SDS011;45208;32.616;-115.472;2022-08-19T13:10:50;34.20;;;4.47;;
59406;SDS011;45208;32.616;-115.472;2022-08-19T13:14:15;32.30;;;3.92;;
59406;SDS011;45208;32.616;-115.472;2022-08-19T13:17:42;28.73;;;3.70;;
59406;SDS011;45208;32.616;-115.472;2022-08-19T13:21:09;24.73;;;3.40;;
59406;SDS011;45208;32.616;-115.472;2022-08-19T13:24:35;23.48;;;3.40;;
59406;SDS011;45208;32.616;-115.472;2022-08-19T13:28:02;28.95;;;3.53;;
59406;SDS011;45208;32.616;-115.472;2022-08-19T13:31:46;17.77;;;3.28;;
59406;SDS011;45208;32.616;-115.472;2022-08-19T13:35:29;23.83;;;3.45;;
59406;SDS011;45208;32.616;-115.472;2022-08-19T13:38:55;17.50;;;2.85;;
59406;SDS011;45208;32.616;-115.472;2022-08-19T13:42:21;18.45;;;2.83;;
59406;SDS011;45208;32.616;-115.472;2022-08-19T13:45:51;16.65;;;3.17;;
59406;SDS011;45208;32.616;-115.472;2022-08-19T13:49:19;17.38;;;2.38;;
59406;SDS011;45208;32.616;-115.472;2022-08-19T13:52:46;29.65;;;3.28;;
59406;SDS011;45208;32.616;-115.472;2022-08-19T13:56:13;22.13;;;3.47;;
59406;SDS011;45208;32.616;-115.472;2022-08-19T13:59:39;42.88;;;4.00;;
59406;SDS011;45208;32.616;-115.472;2022-08-19T14:03:06;19.27;;;3.38;;
59406;SDS011;45208;32.616;-115.472;2022-08-19T14:06:32;21.33;;;3.05;;
59406;SDS011;45208;32.616;-115.472;2022-08-19T14:09:57;56.42;;;4.65;;
59406;SDS011;45208;32.616;-115.472;2022-08-19T14:13:23;22.52;;;3.22;;
59406;SDS011;45208;32.616;-115.472;2022-08-19T14:16:48;27.77;;;3.58;;
59406;SDS011;45208;32.616;-115.472;2022-08-19T14:20:14;20.55;;;3.30;;
59406;SDS011;45208;32.616;-115.472;2022-08-19T14:23:46;23.50;;;3.58;;
59406;SDS011;45208;32.616;-115.472;2022-08-19T14:27:13;17.25;;;3.05;;
59406;SDS011;45208;32.616;-115.472;2022-08-19T14:30:38;18.48;;;3.53;;
59406;SDS011;45208;32.616;-115.472;2022-08-19T14:34:06;23.30;;;4.10;;
59406;SDS011;45208;32.616;-115.472;2022-08-19T14:37:33;20.58;;;3.08;;
59406;SDS011;45208;32.616;-115.472;2022-08-19T14:41:15;22.50;;;3.30;;
59406;SDS011;45208;32.616;-115.472;2022-08-19T14:44:41;16.65;;;3.28;;
59406;SDS011;45208;32.616;-115.472;2022-08-19T14:48:07;19.20;;;3.63;;
59406;SDS011;45208;32.616;-115.472;2022-08-19T14:51:33;14.18;;;2.65;;
59406;SDS011;45208;32.616;-115.472;2022-08-19T14:54:59;10.85;;;2.78;;
59406;SDS011;45208;32.616;-115.472;2022-08-19T14:58:24;10.37;;;2.23;;
59406;SDS011;45208;32.616;-115.472;2022-08-19T15:01:50;17.38;;;2.50;;
59406;SDS011;45208;32.616;-115.472;2022-08-19T15:05:15;13.52;;;2.17;;
59406;SDS011;45208;32.616;-115.472;2022-08-19T15:08:43;13.90;;;2.35;;
59406;SDS011;45208;32.616;-115.472;2022-08-19T15:12:08;18.30;;;2.42;;
59406;SDS011;45208;32.616;-115.472;2022-08-19T15:15:36;12.80;;;2.58;;
59406;SDS011;45208;32.616;-115.472;2022-08-19T15:19:05;15.55;;;2.55;;
59406;SDS011;45208;32.616;-115.472;2022-08-19T15:25:56;20.52;;;3.15;;
59406;SDS011;45208;32.616;-115.472;2022-08-19T15:29:22;16.60;;;3.60;;
59406;SDS011;45208;32.616;-115.472;2022-08-19T15:32:51;16.95;;;3.38;;
59406;SDS011;45208;32.616;-115.472;2022-08-19T15:36:17;59.20;;;6.93;;
59406;SDS011;45208;32.616;-115.472;2022-08-19T15:39:42;10.85;;;3.17;;
59406;SDS011;45208;32.616;-115.472;2022-08-19T15:43:07;28.35;;;4.15;;
59406;SDS011;45208;32.616;-115.472;2022-08-19T15:46:36;36.88;;;4.80;;
59406;SDS011;45208;32.616;-115.472;2022-08-19T15:50:10;29.33;;;4.40;;
59406;SDS011;45208;32.616;-115.472;2022-08-19T15:53:36;13.52;;;3.80;;
59406;SDS011;45208;32.616;-115.472;2022-08-19T15:57:01;18.95;;;4.53;;
59406;SDS011;45208;32.616;-115.472;2022-08-19T16:00:46;19.73;;;3.90;;
59406;SDS011;45208;32.616;-115.472;2022-08-19T16:04:30;12.07;;;3.70;;
59406;SDS011;45208;32.616;-115.472;2022-08-19T16:08:14;17.58;;;3.42;;
59406;SDS011;45208;32.616;-115.472;2022-08-19T16:11:39;17.25;;;3.60;;
59406;SDS011;45208;32.616;-115.472;2022-08-19T16:15:07;21.60;;;4.50;;
59406;SDS011;45208;32.616;-115.472;2022-08-19T16:18:33;20.00;;;4.28;;
59406;SDS011;45208;32.616;-115.472;2022-08-19T16:21:58;14.30;;;3.35;;
59406;SDS011;45208;32.616;-115.472;2022-08-19T16:25:25;13.98;;;3.78;;
59406;SDS011;45208;32.616;-115.472;2022-08-19T16:28:56;27.23;;;4.70;;
59406;SDS011;45208;32.616;-115.472;2022-08-19T16:32:22;15.20;;;4.10;;
59406;SDS011;45208;32.616;-115.472;2022-08-19T16:35:47;23.13;;;4.10;;
59406;SDS011;45208;32.616;-115.472;2022-08-19T16:39:13;16.33;;;3.85;;
59406;SDS011;45208;32.616;-115.472;2022-08-19T16:46:04;15.88;;;3.97;;
59406;SDS011;45208;32.616;-115.472;2022-08-19T16:49:30;16.20;;;3.10;;
59406;SDS011;45208;32.616;-115.472;2022-08-19T16:52:55;18.30;;;3.67;;
59406;SDS011;45208;32.616;-115.472;2022-08-19T16:56:21;25.10;;;3.80;;
59406;SDS011;45208;32.616;-115.472;2022-08-19T16:59:48;17.50;;;2.97;;
59406;SDS011;45208;32.616;-115.472;2022-08-19T17:03:15;12.52;;;2.97;;
59406;SDS011;45208;32.616;-115.472;2022-08-19T17:06:41;15.52;;;2.83;;
59406;SDS011;45208;32.616;-115.472;2022-08-19T17:10:07;19.70;;;3.33;;
59406;SDS011;45208;32.616;-115.472;2022-08-19T17:13:32;17.25;;;3.40;;
59406;SDS011;45208;32.616;-115.472;2022-08-19T17:16:58;17.20;;;3.40;;
59406;SDS011;45208;32.616;-115.472;2022-08-19T17:20:32;18.08;;;3.03;;
59406;SDS011;45208;32.616;-115.472;2022-08-19T17:23:59;20.38;;;3.42;;
59406;SDS011;45208;32.616;-115.472;2022-08-19T17:27:26;25.95;;;4.18;;
59406;SDS011;45208;32.616;-115.472;2022-08-19T17:30:53;19.58;;;3.28;;
59406;SDS011;45208;32.616;-115.472;2022-08-19T17:34:19;22.08;;;3.78;;
59406;SDS011;45208;32.616;-115.472;2022-08-19T17:37:46;21.13;;;3.63;;
59406;SDS011;45208;32.616;-115.472;2022-08-19T17:41:12;25.65;;;4.20;;
59406;SDS011;45208;32.616;-115.472;2022-08-19T17:44:37;20.83;;;3.90;;
59406;SDS011;45208;32.616;-115.472;2022-08-19T17:48:03;19.25;;;3.90;;
59406;SDS011;45208;32.616;-115.472;2022-08-19T17:54:57;26.70;;;4.38;;
59406;SDS011;45208;32.616;-115.472;2022-08-19T17:58:22;26.50;;;3.58;;
59406;SDS011;45208;32.616;-115.472;2022-08-19T18:01:48;30.77;;;3.85;;
59406;SDS011;45208;32.616;-115.472;2022-08-19T18:05:19;25.05;;;3.97;;
59406;SDS011;45208;32.616;-115.472;2022-08-19T18:08:44;29.20;;;4.15;;
59406;SDS011;45208;32.616;-115.472;2022-08-19T18:12:10;28.83;;;4.32;;
59406;SDS011;45208;32.616;-115.472;2022-08-19T18:15:40;26.98;;;3.88;;
59406;SDS011;45208;32.616;-115.472;2022-08-19T18:19:05;26.30;;;4.00;;
59406;SDS011;45208;32.616;-115.472;2022-08-19T18:22:34;17.67;;;3.60;;
59406;SDS011;45208;32.616;-115.472;2022-08-19T18:26:00;24.95;;;3.72;;
59406;SDS011;45208;32.616;-115.472;2022-08-19T18:29:25;28.50;;;4.38;;
59406;SDS011;45208;32.616;-115.472;2022-08-19T18:32:52;27.38;;;4.47;;
59406;SDS011;45208;32.616;-115.472;2022-08-19T18:36:18;21.33;;;4.00;;
59406;SDS011;45208;32.616;-115.472;2022-08-19T18:39:44;87.72;;;6.57;;
59406;SDS011;45208;32.616;-115.472;2022-08-19T18:43:27;31.98;;;4.22;;
59406;SDS011;45208;32.616;-115.472;2022-08-19T18:47:10;20.80;;;3.78;;
59406;SDS011;45208;32.616;-115.472;2022-08-19T18:50:55;22.67;;;4.43;;
59406;SDS011;45208;32.616;-115.472;2022-08-19T18:54:22;22.20;;;3.95;;
59406;SDS011;45208;32.616;-115.472;2022-08-19T18:57:48;26.30;;;4.00;;
59406;SDS011;45208;32.616;-115.472;2022-08-19T19:01:19;21.73;;;3.15;;
59406;SDS011;45208;32.616;-115.472;2022-08-19T19:04:46;23.55;;;3.60;;
59406;SDS011;45208;32.616;-115.472;2022-08-19T19:08:13;23.35;;;3.80;;
59406;SDS011;45208;32.616;-115.472;2022-08-19T19:11:41;60.30;;;5.28;;
59406;SDS011;45208;32.616;-115.472;2022-08-19T19:15:11;16.98;;;2.60;;
59406;SDS011;45208;32.616;-115.472;2022-08-19T19:18:37;15.52;;;3.40;;
59406;SDS011;45208;32.616;-115.472;2022-08-19T19:22:08;17.30;;;3.50;;
59406;SDS011;45208;32.616;-115.472;2022-08-19T19:25:33;22.75;;;3.33;;
59406;SDS011;45208;32.616;-115.472;2022-08-19T19:28:59;17.23;;;3.20;;
59406;SDS011;45208;32.616;-115.472;2022-08-19T19:35:50;14.43;;;2.78;;
59406;SDS011;45208;32.616;-115.472;2022-08-19T19:39:17;18.65;;;2.67;;
59406;SDS011;45208;32.616;-115.472;2022-08-19T19:42:42;15.27;;;2.25;;
59406;SDS011;45208;32.616;-115.472;2022-08-19T19:46:08;11.93;;;2.08;;
59406;SDS011;45208;32.616;-115.472;2022-08-19T19:49:35;12.70;;;2.10;;
59406;SDS011;45208;32.616;-115.472;2022-08-19T19:53:00;14.57;;;2.15;;
59406;SDS011;45208;32.616;-115.472;2022-08-19T19:56:26;9.25;;;2.15;;
59406;SDS011;45208;32.616;-115.472;2022-08-19T19:59:51;13.93;;;2.20;;
59406;SDS011;45208;32.616;-115.472;2022-08-19T20:03:17;11.20;;;2.25;;
59406;SDS011;45208;32.616;-115.472;2022-08-19T20:06:43;13.38;;;2.35;;
59406;SDS011;45208;32.616;-115.472;2022-08-19T20:10:27;18.45;;;2.63;;
59406;SDS011;45208;32.616;-115.472;2022-08-19T20:13:57;7.65;;;2.20;;
59406;SDS011;45208;32.616;-115.472;2022-08-19T20:17:22;11.30;;;2.17;;
59406;SDS011;45208;32.616;-115.472;2022-08-19T20:20:48;19.42;;;2.10;;
59406;SDS011;45208;32.616;-115.472;2022-08-19T20:24:16;14.73;;;2.33;;
59406;SDS011;45208;32.616;-115.472;2022-08-19T20:27:43;8.75;;;2.50;;
59406;SDS011;45208;32.616;-115.472;2022-08-19T20:31:09;8.77;;;2.20;;
59406;SDS011;45208;32.616;-115.472;2022-08-19T20:34:34;11.68;;;2.33;;
59406;SDS011;45208;32.616;-115.472;2022-08-19T20:38:00;7.85;;;2.35;;
59406;SDS011;45208;32.616;-115.472;2022-08-19T20:41:26;9.23;;;2.20;;